Time;durP1;ratioP1;P1;durP2;ratioP2;P2;SDS_P1;SDS_P2;PMS_P1;PMS_P2;Temp;Humidity;BMP_temperature;BMP_pressure;BME280_temperature;BME280_humidity;BME280_pressure;Samples;Min_cycle;Max_cycle;Signal;HPM_P1;HPM_P2
2022/07/18 00:01:56;;;;;;;3.58;1.15;;;;;;;;;;4990537;28;20029;-67
2022/07/18 00:04:21;;;;;;;6.13;1.35;;;;;;;;;;4988903;28;20609;-67
2022/07/18 00:06:47;;;;;;;2.72;0.73;;;;;;;;;;4990397;28;20018;-67
2022/07/18 00:09:12;;;;;;;7.13;1.27;;;;;;;;;;4989763;28;20377;-68
2022/07/18 00:11:37;;;;;;;3.53;1.37;;;;;;;;;;4991022;28;20034;-67
2022/07/18 00:14:03;;;;;;;9.35;1.05;;;;;;;;;;4982895;28;20743;-68
2022/07/18 00:16:28;;;;;;;5.80;1.58;;;;;;;;;;4970858;28;20031;-67
2022/07/18 00:18:54;;;;;;;3.20;1.20;;;;;;;;;;4989020;28;20021;-67
2022/07/18 00:21:20;;;;;;;5.15;1.13;;;;;;;;;;4989918;28;20029;-67
2022/07/18 00:23:45;;;;;;;5.57;1.02;;;;;;;;;;4989541;28;20097;-67
2022/07/18 00:26:10;;;;;;;2.73;0.80;;;;;;;;;;4990962;28;20010;-67
2022/07/18 00:28:35;;;;;;;2.72;0.90;;;;;;;;;;4988787;28;20060;-67
2022/07/18 00:31:01;;;;;;;9.00;1.00;;;;;;;;;;4989317;28;20014;-69
2022/07/18 00:33:26;;;;;;;4.60;0.80;;;;;;;;;;4986716;28;20023;-67
2022/07/18 00:35:51;;;;;;;5.20;1.50;;;;;;;;;;4990748;28;20061;-68
2022/07/18 00:38:16;;;;;;;3.90;1.10;;;;;;;;;;4988702;28;20042;-67
2022/07/18 00:40:41;;;;;;;7.28;1.38;;;;;;;;;;4976238;28;20393;-67
2022/07/18 00:43:07;;;;;;;6.17;1.07;;;;;;;;;;4990429;28;20121;-67
2022/07/18 00:45:32;;;;;;;3.03;1.42;;;;;;;;;;4989677;28;20273;-67
2022/07/18 00:47:57;;;;;;;4.40;1.05;;;;;;;;;;4987523;28;20068;-68
2022/07/18 00:50:23;;;;;;;3.27;1.20;;;;;;;;;;4989555;28;20038;-67
2022/07/18 00:52:48;;;;;;;5.82;1.30;;;;;;;;;;4989766;28;20277;-67
2022/07/18 00:55:13;;;;;;;9.57;1.33;;;;;;;;;;4988879;28;20029;-67
2022/07/18 00:57:39;;;;;;;4.93;1.98;;;;;;;;;;4989310;28;20085;-67
2022/07/18 01:02:49;;;;;;;2.70;1.10;;;;;;;;;;4987332;28;20057;-67
2022/07/18 01:05:14;;;;;;;5.53;1.10;;;;;;;;;;4988694;28;20459;-68
2022/07/18 01:07:40;;;;;;;3.83;1.17;;;;;;;;;;4987178;28;20277;-67
2022/07/18 01:10:05;;;;;;;4.10;1.30;;;;;;;;;;4988115;28;20313;-68
2022/07/18 01:12:30;;;;;;;4.47;1.20;;;;;;;;;;4986629;28;20356;-67
2022/07/18 01:14:57;;;;;;;4.13;1.48;;;;;;;;;;4989575;28;20030;-67
2022/07/18 01:17:22;;;;;;;2.42;0.80;;;;;;;;;;4989130;28;20029;-68
2022/07/18 01:19:48;;;;;;;2.42;0.90;;;;;;;;;;4988851;28;20410;-69
2022/07/18 01:22:14;;;;;;;4.10;1.08;;;;;;;;;;4989321;28;20046;-69
2022/07/18 01:24:39;;;;;;;4.75;1.38;;;;;;;;;;4988133;28;20041;-67
2022/07/18 01:27:05;;;;;;;8.52;1.48;;;;;;;;;;4988646;28;20553;-67
2022/07/18 01:29:30;;;;;;;4.38;0.90;;;;;;;;;;4989533;28;20105;-66
2022/07/18 01:31:55;;;;;;;3.00;1.23;;;;;;;;;;4987324;28;20085;-69
2022/07/18 01:34:21;;;;;;;2.08;0.90;;;;;;;;;;4989782;28;20750;-67
2022/07/18 01:36:47;;;;;;;4.15;1.08;;;;;;;;;;4986869;28;20033;-68
2022/07/18 01:39:12;;;;;;;3.17;1.30;;;;;;;;;;4989354;28;20015;-67
2022/07/18 01:41:37;;;;;;;3.17;1.23;;;;;;;;;;4986780;28;20026;-67
2022/07/18 01:44:03;;;;;;;3.00;1.08;;;;;;;;;;4989602;28;20261;-67
2022/07/18 01:46:28;;;;;;;5.82;1.15;;;;;;;;;;4986708;28;20077;-67
2022/07/18 01:48:53;;;;;;;3.23;1.10;;;;;;;;;;4988209;28;20073;-67
2022/07/18 01:51:18;;;;;;;12.37;1.30;;;;;;;;;;4987564;28;20022;-66
2022/07/18 01:53:53;;;;;;;9.23;1.92;;;;;;;;;;4989726;28;20301;-68
2022/07/18 01:56:18;;;;;;;5.93;1.45;;;;;;;;;;4987204;28;20543;-68
2022/07/18 01:58:43;;;;;;;2.33;1.10;;;;;;;;;;4986720;28;20026;-67
2022/07/18 02:01:08;;;;;;;3.77;1.07;;;;;;;;;;4987679;28;20331;-67
2022/07/18 02:03:33;;;;;;;5.23;1.67;;;;;;;;;;4988979;28;20487;-67
2022/07/18 02:05:59;;;;;;;8.17;2.60;;;;;;;;;;4987469;28;20062;-67
2022/07/18 02:08:24;;;;;;;3.47;1.65;;;;;;;;;;4989702;28;20658;-66
2022/07/18 02:10:49;;;;;;;4.77;1.43;;;;;;;;;;4971754;28;20034;-68
2022/07/18 02:13:16;;;;;;;4.00;0.80;;;;;;;;;;4989576;28;20184;-67
2022/07/18 02:15:41;;;;;;;3.70;1.40;;;;;;;;;;4987769;28;20019;-68
2022/07/18 02:18:07;;;;;;;6.03;1.20;;;;;;;;;;4975473;28;20018;-68
2022/07/18 02:20:32;;;;;;;2.50;1.27;;;;;;;;;;4987504;28;20391;-68
2022/07/18 02:22:58;;;;;;;3.45;1.23;;;;;;;;;;4990959;28;20348;-67
2022/07/18 02:25:23;;;;;;;3.28;0.90;;;;;;;;;;4993076;28;20029;-68
2022/07/18 02:27:48;;;;;;;4.37;1.07;;;;;;;;;;4991191;28;20027;-67
2022/07/18 02:30:14;;;;;;;4.72;1.52;;;;;;;;;;4991183;28;20304;-68
2022/07/18 02:32:39;;;;;;;2.47;1.10;;;;;;;;;;4992435;28;20173;-68
2022/07/18 02:35:06;;;;;;;4.90;0.98;;;;;;;;;;4973871;28;20546;-67
2022/07/18 02:37:31;;;;;;;7.95;1.85;;;;;;;;;;4992198;28;20033;-66
2022/07/18 02:39:56;;;;;;;5.13;0.95;;;;;;;;;;4991600;28;20364;-67
2022/07/18 02:42:21;;;;;;;3.90;0.90;;;;;;;;;;4989358;28;20030;-67
2022/07/18 02:44:46;;;;;;;3.13;1.07;;;;;;;;;;4990373;28;20427;-69
2022/07/18 02:47:12;;;;;;;6.70;1.23;;;;;;;;;;4991242;28;20022;-68
2022/07/18 02:49:38;;;;;;;2.17;1.00;;;;;;;;;;4991846;28;20498;-66
2022/07/18 02:52:05;;;;;;;3.70;1.20;;;;;;;;;;4990454;28;20331;-67
2022/07/18 02:54:31;;;;;;;5.00;1.45;;;;;;;;;;4991627;28;20026;-66
2022/07/18 02:56:56;;;;;;;4.63;1.00;;;;;;;;;;4990914;28;20015;-67
2022/07/18 02:59:22;;;;;;;2.10;1.08;;;;;;;;;;4991724;28;20023;-66
2022/07/18 03:01:48;;;;;;;3.20;1.05;;;;;;;;;;4991404;28;20030;-67
2022/07/18 03:04:14;;;;;;;7.13;1.30;;;;;;;;;;4991782;28;20101;-67
2022/07/18 03:06:39;;;;;;;4.30;2.08;;;;;;;;;;4992272;28;20098;-68
2022/07/18 03:09:04;;;;;;;3.70;1.30;;;;;;;;;;4989473;28;20140;-68
2022/07/18 03:11:29;;;;;;;3.93;1.40;;;;;;;;;;4992159;28;20465;-68
2022/07/18 03:13:55;;;;;;;6.85;1.55;;;;;;;;;;4990189;28;20280;-68
2022/07/18 03:16:20;;;;;;;3.43;1.20;;;;;;;;;;4991274;28;20514;-68
2022/07/18 03:18:45;;;;;;;5.00;1.47;;;;;;;;;;4991497;28;20282;-68
2022/07/18 03:21:10;;;;;;;2.90;1.10;;;;;;;;;;4990062;28;20281;-67
2022/07/18 03:23:35;;;;;;;4.03;1.07;;;;;;;;;;4991184;28;20150;-67
2022/07/18 03:26:00;;;;;;;4.73;1.23;;;;;;;;;;4989868;28;20281;-67
2022/07/18 03:28:26;;;;;;;7.53;1.23;;;;;;;;;;4992029;28;20603;-67
2022/07/18 03:30:51;;;;;;;6.03;1.50;;;;;;;;;;4990009;28;20287;-67
2022/07/18 03:33:17;;;;;;;4.78;1.33;;;;;;;;;;4989973;28;20619;-66
2022/07/18 03:35:42;;;;;;;5.88;1.35;;;;;;;;;;5009246;23;20049;-67
2022/07/18 03:38:07;;;;;;;7.63;1.30;;;;;;;;;;5005522;28;20105;-67
2022/07/18 03:40:32;;;;;;;2.93;1.30;;;;;;;;;;5008293;28;20057;-67
2022/07/18 03:42:58;;;;;;;9.18;1.40;;;;;;;;;;5010000;28;20030;-68
2022/07/18 03:45:23;;;;;;;5.18;1.60;;;;;;;;;;5014078;28;20017;-68
2022/07/18 03:47:48;;;;;;;5.30;1.55;;;;;;;;;;5028194;28;20108;-68
2022/07/18 03:50:13;;;;;;;8.65;1.77;;;;;;;;;;5029033;28;20021;-68
2022/07/18 03:52:38;;;;;;;2.40;1.20;;;;;;;;;;5027147;28;20053;-68
2022/07/18 03:55:04;;;;;;;5.28;1.73;;;;;;;;;;5025601;28;20636;-68
2022/07/18 03:57:29;;;;;;;6.70;1.50;;;;;;;;;;5024436;28;20657;-68
2022/07/18 03:59:54;;;;;;;4.00;1.50;;;;;;;;;;5027385;28;20112;-68
2022/07/18 04:02:20;;;;;;;3.50;1.63;;;;;;;;;;5025646;28;20752;-68
2022/07/18 04:04:45;;;;;;;3.72;1.85;;;;;;;;;;5028112;28;20075;-67
2022/07/18 04:07:10;;;;;;;3.25;1.25;;;;;;;;;;5027230;28;20505;-67
2022/07/18 04:09:35;;;;;;;4.93;1.10;;;;;;;;;;5024005;28;20029;-68
2022/07/18 04:12:00;;;;;;;2.70;1.33;;;;;;;;;;5025299;28;20018;-67
2022/07/18 04:14:26;;;;;;;3.77;1.20;;;;;;;;;;5025017;28;20033;-68
2022/07/18 04:16:51;;;;;;;4.83;1.43;;;;;;;;;;5026392;28;20632;-68
2022/07/18 04:19:17;;;;;;;5.30;1.23;;;;;;;;;;5027167;28;20292;-68
2022/07/18 04:21:42;;;;;;;5.00;1.67;;;;;;;;;;5023803;28;20375;-68
2022/07/18 04:24:07;;;;;;;2.03;1.42;;;;;;;;;;5027380;28;20022;-68
2022/07/18 04:26:33;;;;;;;5.18;2.00;;;;;;;;;;5026758;28;20031;-68
2022/07/18 04:28:58;;;;;;;2.87;1.50;;;;;;;;;;5026063;28;20032;-68
2022/07/18 04:31:23;;;;;;;3.05;1.80;;;;;;;;;;5026132;28;20276;-68
2022/07/18 04:33:48;;;;;;;3.20;1.63;;;;;;;;;;5025736;28;20037;-67
2022/07/18 04:36:13;;;;;;;4.93;1.50;;;;;;;;;;5028002;28;20033;-68
2022/07/18 04:38:39;;;;;;;2.60;1.25;;;;;;;;;;5028346;28;20268;-68
2022/07/18 04:41:04;;;;;;;12.18;1.30;;;;;;;;;;5006922;28;20071;-68
2022/07/18 04:43:30;;;;;;;5.80;1.65;;;;;;;;;;5020017;28;20119;-68
2022/07/18 04:45:55;;;;;;;4.63;1.25;;;;;;;;;;5029185;28;20099;-68
2022/07/18 04:48:21;;;;;;;4.27;1.20;;;;;;;;;;5025463;28;20025;-68
2022/07/18 04:50:46;;;;;;;5.15;1.50;;;;;;;;;;5025760;28;20276;-68
2022/07/18 04:53:11;;;;;;;6.40;1.23;;;;;;;;;;5025764;28;20079;-68
2022/07/18 04:55:36;;;;;;;5.57;1.13;;;;;;;;;;5024591;28;20029;-66
2022/07/18 04:58:01;;;;;;;3.95;1.10;;;;;;;;;;5019344;28;20058;-68
2022/07/18 05:00:27;;;;;;;6.07;1.33;;;;;;;;;;5026994;28;20030;-67
2022/07/18 05:02:54;;;;;;;6.80;2.22;;;;;;;;;;5024540;28;20280;-67
2022/07/18 05:05:20;;;;;;;2.55;1.10;;;;;;;;;;5010130;28;20037;-66
2022/07/18 05:07:46;;;;;;;5.22;1.30;;;;;;;;;;5019486;28;20071;-67
2022/07/18 05:10:12;;;;;;;3.33;1.10;;;;;;;;;;5018674;28;20550;-68
2022/07/18 05:12:38;;;;;;;3.67;0.82;;;;;;;;;;5025467;28;20052;-68
2022/07/18 05:15:08;;;;;;;4.60;1.05;;;;;;;;;;5022882;28;20053;-68
2022/07/18 05:17:33;;;;;;;3.75;0.90;;;;;;;;;;5022133;28;20039;-68
2022/07/18 05:19:58;;;;;;;3.42;1.15;;;;;;;;;;5021916;28;20247;-67
2022/07/18 05:22:24;;;;;;;3.55;0.80;;;;;;;;;;5023151;28;20053;-68
2022/07/18 05:24:49;;;;;;;4.53;0.98;;;;;;;;;;5023694;28;20115;-66
2022/07/18 05:27:14;;;;;;;4.18;1.00;;;;;;;;;;5020090;28;20029;-68
2022/07/18 05:29:39;;;;;;;7.57;1.00;;;;;;;;;;5022706;28;20018;-67
2022/07/18 05:32:05;;;;;;;2.20;0.97;;;;;;;;;;5020236;28;20894;-67
2022/07/18 05:34:30;;;;;;;2.55;0.90;;;;;;;;;;5018806;28;20288;-67
2022/07/18 05:36:55;;;;;;;3.50;1.08;;;;;;;;;;5025570;28;20091;-68
2022/07/18 05:39:20;;;;;;;3.63;1.00;;;;;;;;;;5019252;28;20045;-68
2022/07/18 05:41:45;;;;;;;6.70;0.90;;;;;;;;;;5026949;28;20026;-67
2022/07/18 05:44:11;;;;;;;4.27;1.00;;;;;;;;;;5021709;28;20787;-68
2022/07/18 05:46:36;;;;;;;8.52;0.88;;;;;;;;;;5027523;28;20291;-68
2022/07/18 05:49:01;;;;;;;4.60;1.03;;;;;;;;;;5020359;28;20101;-67
2022/07/18 05:51:26;;;;;;;2.87;1.10;;;;;;;;;;5020870;28;20644;-68
2022/07/18 05:53:52;;;;;;;14.80;1.30;;;;;;;;;;5022075;28;20284;-68
2022/07/18 05:56:17;;;;;;;7.97;1.13;;;;;;;;;;5027393;28;20547;-67
2022/07/18 05:58:42;;;;;;;2.63;1.10;;;;;;;;;;5026720;28;20279;-67
2022/07/18 06:01:07;;;;;;;6.70;1.67;;;;;;;;;;5026983;28;20277;-68
2022/07/18 06:03:32;;;;;;;6.13;1.30;;;;;;;;;;5025649;28;20606;-68
2022/07/18 06:05:58;;;;;;;6.33;1.80;;;;;;;;;;5026221;28;20032;-67
2022/07/18 06:08:23;;;;;;;6.57;1.53;;;;;;;;;;5028032;28;20275;-68
2022/07/18 06:10:48;;;;;;;2.13;0.90;;;;;;;;;;5025818;28;20551;-69
2022/07/18 06:13:13;;;;;;;10.50;1.10;;;;;;;;;;5016786;28;20285;-67
2022/07/18 06:15:38;;;;;;;3.03;1.03;;;;;;;;;;5025506;28;20022;-67
2022/07/18 06:18:04;;;;;;;3.57;1.07;;;;;;;;;;5024203;28;20279;-67
2022/07/18 06:20:29;;;;;;;5.68;1.27;;;;;;;;;;5027466;28;20477;-67
2022/07/18 06:22:54;;;;;;;7.85;1.50;;;;;;;;;;5028517;28;20363;-67
2022/07/18 06:25:19;;;;;;;10.20;1.20;;;;;;;;;;5027338;28;20393;-67
2022/07/18 06:27:44;;;;;;;5.33;0.80;;;;;;;;;;5030187;28;20022;-67
2022/07/18 06:30:10;;;;;;;3.40;1.30;;;;;;;;;;5030565;28;20749;-67
2022/07/18 06:32:36;;;;;;;8.38;2.05;;;;;;;;;;5029806;28;20268;-67
2022/07/18 06:35:01;;;;;;;2.50;0.90;;;;;;;;;;5027855;28;20516;-66
2022/07/18 06:37:26;;;;;;;2.42;0.70;;;;;;;;;;5031296;28;20112;-67
2022/07/18 06:39:52;;;;;;;4.78;2.20;;;;;;;;;;5027645;28;20021;-67
2022/07/18 06:42:17;;;;;;;3.73;1.10;;;;;;;;;;5028047;28;20097;-67
2022/07/18 06:44:42;;;;;;;4.33;0.97;;;;;;;;;;5030743;28;20394;-67
2022/07/18 06:47:07;;;;;;;11.63;1.00;;;;;;;;;;5028011;28;20268;-67
2022/07/18 06:49:32;;;;;;;24.83;1.03;;;;;;;;;;5029697;28;20299;-67
2022/07/18 06:51:57;;;;;;;1.77;0.70;;;;;;;;;;5022587;28;20633;-67
2022/07/18 06:54:27;;;;;;;5.27;0.87;;;;;;;;;;5026155;28;20052;-68
2022/07/18 06:56:53;;;;;;;3.40;0.55;;;;;;;;;;5031117;28;20372;-67
2022/07/18 06:59:18;;;;;;;4.20;0.98;;;;;;;;;;5030537;28;20116;-67
2022/07/18 07:01:43;;;;;;;1.63;0.83;;;;;;;;;;5014499;28;20029;-67
2022/07/18 07:04:08;;;;;;;6.53;1.03;;;;;;;;;;5021694;28;20269;-67
2022/07/18 07:06:34;;;;;;;7.27;1.03;;;;;;;;;;5023891;28;20026;-67
2022/07/18 07:08:59;;;;;;;3.08;0.80;;;;;;;;;;5028620;28;20052;-67
2022/07/18 07:11:24;;;;;;;13.07;1.27;;;;;;;;;;5026455;28;20037;-67
2022/07/18 07:13:49;;;;;;;5.77;1.47;;;;;;;;;;5030967;28;20029;-67
2022/07/18 07:16:15;;;;;;;2.70;0.93;;;;;;;;;;5029950;28;20351;-67
2022/07/18 07:18:40;;;;;;;3.53;0.83;;;;;;;;;;5027062;28;20044;-67
2022/07/18 07:21:06;;;;;;;4.22;0.80;;;;;;;;;;5022631;28;20033;-67
2022/07/18 07:23:31;;;;;;;2.38;0.70;;;;;;;;;;5029371;28;20022;-67
2022/07/18 07:25:56;;;;;;;8.27;1.27;;;;;;;;;;5029130;28;20014;-67
2022/07/18 07:28:21;;;;;;;2.72;1.05;;;;;;;;;;5031989;28;20454;-67
2022/07/18 07:30:47;;;;;;;2.17;1.10;;;;;;;;;;5025893;28;20095;-67
2022/07/18 07:33:12;;;;;;;0.80;0.45;;;;;;;;;;5024292;28;20096;-67
2022/07/18 07:35:37;;;;;;;6.57;1.10;;;;;;;;;;5026468;28;20576;-67
2022/07/18 07:38:02;;;;;;;3.70;1.00;;;;;;;;;;5029160;28;20028;-67
2022/07/18 07:40:28;;;;;;;3.27;0.97;;;;;;;;;;5029537;28;20335;-67
2022/07/18 07:43:07;;;;;;;3.13;0.70;;;;;;;;;;5029930;28;20280;-68
2022/07/18 07:45:32;;;;;;;8.93;1.27;;;;;;;;;;5023666;28;20612;-68
2022/07/18 07:47:57;;;;;;;1.90;0.90;;;;;;;;;;5027370;28;20053;-67
2022/07/18 07:50:23;;;;;;;2.07;0.90;;;;;;;;;;5026779;28;20025;-68
2022/07/18 07:52:48;;;;;;;2.22;0.90;;;;;;;;;;5027949;28;20038;-67
2022/07/18 07:55:13;;;;;;;1.93;0.93;;;;;;;;;;5031829;28;20040;-68
2022/07/18 07:57:39;;;;;;;2.70;0.80;;;;;;;;;;5023537;28;20276;-67
2022/07/18 08:00:05;;;;;;;4.17;1.10;;;;;;;;;;5027124;28;20521;-67
2022/07/18 08:02:30;;;;;;;5.40;1.08;;;;;;;;;;5026380;28;20299;-67
2022/07/18 08:04:55;;;;;;;1.90;0.83;;;;;;;;;;5021551;28;20642;-67
2022/07/18 08:07:21;;;;;;;1.50;0.80;;;;;;;;;;5023024;28;20478;-67
2022/07/18 08:09:46;;;;;;;1.75;0.90;;;;;;;;;;5028762;28;20028;-67
2022/07/18 08:12:11;;;;;;;1.33;0.70;;;;;;;;;;5029455;28;20021;-67
2022/07/18 08:14:39;;;;;;;6.13;0.90;;;;;;;;;;5028348;28;20040;-67
2022/07/18 08:17:05;;;;;;;4.60;0.90;;;;;;;;;;5026383;28;20272;-67
2022/07/18 08:19:30;;;;;;;8.00;1.10;;;;;;;;;;5018787;28;20151;-66
2022/07/18 08:21:55;;;;;;;4.53;1.17;;;;;;;;;;5027896;28;20477;-67
2022/07/18 08:24:20;;;;;;;7.20;1.13;;;;;;;;;;5024256;28;20276;-68
2022/07/18 08:26:46;;;;;;;1.63;0.73;;;;;;;;;;5026215;28;20141;-67
2022/07/18 08:29:11;;;;;;;4.50;1.35;;;;;;;;;;5026582;28;20032;-67
2022/07/18 08:31:36;;;;;;;4.22;1.08;;;;;;;;;;5025009;28;20105;-67
2022/07/18 08:34:02;;;;;;;2.10;1.23;;;;;;;;;;5024662;28;20432;-67
2022/07/18 08:36:27;;;;;;;2.93;1.23;;;;;;;;;;5027100;28;20040;-67
2022/07/18 08:38:52;;;;;;;3.80;0.97;;;;;;;;;;5027766;28;20020;-68
2022/07/18 08:41:17;;;;;;;2.07;0.90;;;;;;;;;;5023998;28;20032;-67
2022/07/18 08:43:44;;;;;;;4.30;1.20;;;;;;;;;;5027216;28;20045;-67
2022/07/18 08:46:10;;;;;;;3.63;1.02;;;;;;;;;;5019561;28;20021;-67
2022/07/18 08:48:35;;;;;;;4.43;0.98;;;;;;;;;;5027732;28;20022;-67
2022/07/18 08:51:01;;;;;;;1.73;0.80;;;;;;;;;;5028521;28;20474;-67
2022/07/18 08:53:26;;;;;;;1.13;0.75;;;;;;;;;;5027502;28;20049;-67
2022/07/18 08:55:51;;;;;;;4.72;1.00;;;;;;;;;;5025570;28;20094;-67
2022/07/18 08:58:17;;;;;;;5.50;1.08;;;;;;;;;;5027686;28;20496;-67
2022/07/18 09:00:43;;;;;;;4.15;1.33;;;;;;;;;;5024399;28;20029;-67
2022/07/18 09:03:08;;;;;;;2.20;0.73;;;;;;;;;;5024314;28;20044;-67
2022/07/18 09:05:33;;;;;;;3.10;1.00;;;;;;;;;;5025545;28;20018;-67
2022/07/18 09:08:19;;;;;;;5.10;1.00;;;;;;;;;;5029646;28;20013;-67
2022/07/18 09:10:49;;;;;;;4.63;0.73;;;;;;;;;;5028281;28;20489;-67
2022/07/18 09:13:15;;;;;;;2.40;1.10;;;;;;;;;;5027128;28;20021;-68
2022/07/18 09:15:59;;;;;;;5.70;1.10;;;;;;;;;;5030265;28;20519;-67
2022/07/18 09:18:28;;;;;;;1.40;0.80;;;;;;;;;;5024359;28;20108;-67
2022/07/18 09:21:03;;;;;;;3.40;1.00;;;;;;;;;;5024761;28;20104;-66
2022/07/18 09:23:30;;;;;;;7.30;1.73;;;;;;;;;;5022129;28;20033;-66
2022/07/18 09:25:55;;;;;;;3.42;0.90;;;;;;;;;;5022295;28;20021;-67
2022/07/18 09:28:20;;;;;;;5.63;1.00;;;;;;;;;;5017464;28;20074;-67
2022/07/18 09:30:45;;;;;;;4.47;1.13;;;;;;;;;;5028684;28;20105;-66
2022/07/18 09:33:11;;;;;;;0.87;0.63;;;;;;;;;;5031141;28;20390;-67
2022/07/18 09:38:08;;;;;;;7.83;1.00;;;;;;;;;;5035077;23;20065;-68
2022/07/18 09:40:38;;;;;;;2.60;1.00;;;;;;;;;;5012441;28;20780;-68
2022/07/18 09:43:05;;;;;;;6.28;1.20;;;;;;;;;;5013689;28;20025;-68
2022/07/18 09:45:30;;;;;;;2.97;1.10;;;;;;;;;;5013459;28;20221;-68
2022/07/18 09:48:06;;;;;;;1.97;0.80;;;;;;;;;;5012961;28;20014;-68
2022/07/18 09:50:31;;;;;;;3.25;1.20;;;;;;;;;;5013233;28;20021;-68
2022/07/18 09:53:01;;;;;;;2.13;1.07;;;;;;;;;;5012454;28;20180;-68
2022/07/18 09:55:26;;;;;;;3.83;1.08;;;;;;;;;;5011575;28;20280;-68
2022/07/18 09:58:02;;;;;;;2.88;0.93;;;;;;;;;;5012609;28;20022;-68
2022/07/18 10:00:28;;;;;;;5.50;1.08;;;;;;;;;;5008559;28;20486;-68
2022/07/18 10:02:54;;;;;;;5.32;1.10;;;;;;;;;;5012222;28;20088;-68
2022/07/18 10:05:19;;;;;;;8.93;1.38;;;;;;;;;;5011811;28;20080;-68
2022/07/18 10:07:45;;;;;;;5.68;1.35;;;;;;;;;;5010165;28;20022;-68
2022/07/18 10:10:13;;;;;;;3.25;1.02;;;;;;;;;;5012484;28;20017;-68
2022/07/18 10:12:38;;;;;;;5.43;0.93;;;;;;;;;;5012629;28;20145;-67
2022/07/18 10:15:04;;;;;;;2.40;0.93;;;;;;;;;;5009844;28;20049;-67
2022/07/18 10:17:29;;;;;;;5.57;1.08;;;;;;;;;;5008978;28;20020;-67
2022/07/18 10:19:55;;;;;;;7.77;1.20;;;;;;;;;;5011393;28;20025;-67
2022/07/18 10:22:20;;;;;;;3.50;1.00;;;;;;;;;;5010933;28;20022;-67
2022/07/18 10:24:45;;;;;;;13.18;1.30;;;;;;;;;;5011806;28;20167;-67
2022/07/18 10:27:20;;;;;;;4.38;1.00;;;;;;;;;;5012034;28;20022;-67
2022/07/18 10:30:04;;;;;;;7.80;1.50;;;;;;;;;;5011443;28;20025;-67
2022/07/18 10:32:33;;;;;;;4.20;1.10;;;;;;;;;;5010893;28;20029;-67
2022/07/18 10:34:58;;;;;;;1.85;1.02;;;;;;;;;;5009696;28;20018;-67
2022/07/18 10:37:24;;;;;;;6.97;1.57;;;;;;;;;;5010774;28;20048;-68
2022/07/18 10:39:50;;;;;;;7.95;0.93;;;;;;;;;;4994541;28;20289;-67
2022/07/18 10:42:17;;;;;;;4.65;0.90;;;;;;;;;;5009979;28;20030;-68
2022/07/18 10:44:42;;;;;;;3.60;1.35;;;;;;;;;;5012525;28;20026;-68
2022/07/18 10:47:09;;;;;;;6.38;1.38;;;;;;;;;;5009968;28;20041;-69
2022/07/18 10:49:49;;;;;;;4.32;1.27;;;;;;;;;;5011830;28;20379;-68
2022/07/18 10:52:23;;;;;;;3.50;1.08;;;;;;;;;;5011507;28;20370;-68
2022/07/18 10:55:15;;;;;;;7.03;1.58;;;;;;;;;;5012693;28;20022;-68
2022/07/18 10:58:01;;;;;;;4.93;1.25;;;;;;;;;;5009821;28;20018;-68
2022/07/18 11:00:32;;;;;;;5.00;1.00;;;;;;;;;;4998011;28;20033;-69
2022/07/18 11:03:00;;;;;;;2.72;1.15;;;;;;;;;;5010524;28;20048;-69
2022/07/18 11:05:26;;;;;;;6.68;1.15;;;;;;;;;;5010654;28;20032;-69
2022/07/18 11:08:14;;;;;;;8.40;1.10;;;;;;;;;;5011156;28;20014;-69
2022/07/18 11:10:43;;;;;;;3.55;1.38;;;;;;;;;;5003726;28;20117;-69
2022/07/18 11:13:08;;;;;;;;;;;;;;;;;;5011464;28;20022;-69
2022/07/18 11:15:53;;;;;;;3.88;1.60;;;;;;;;;;4998406;28;20322;-69
2022/07/18 11:18:18;;;;;;;1.63;1.02;;;;;;;;;;4991690;28;20026;-70
2022/07/18 11:20:44;;;;;;;6.27;1.23;;;;;;;;;;5011388;28;20025;-69
2022/07/18 11:23:17;;;;;;;2.80;1.40;;;;;;;;;;5012076;28;20014;-70
2022/07/18 11:25:42;;;;;;;8.82;1.23;;;;;;;;;;5011602;28;20264;-70
2022/07/18 11:28:08;;;;;;;6.77;1.67;;;;;;;;;;5011418;28;20026;-70
2022/07/18 11:30:34;;;;;;;5.72;1.45;;;;;;;;;;5009792;28;20273;-69
2022/07/18 11:32:59;;;;;;;4.13;1.90;;;;;;;;;;5009027;28;20052;-69
2022/07/18 11:35:25;;;;;;;2.50;1.20;;;;;;;;;;5011137;28;20026;-70
2022/07/18 11:37:52;;;;;;;1.85;0.98;;;;;;;;;;5009726;28;20280;-70
2022/07/18 11:40:17;;;;;;;6.03;1.45;;;;;;;;;;5011078;28;20030;-70
2022/07/18 11:42:42;;;;;;;2.35;1.40;;;;;;;;;;5010919;28;20013;-70
2022/07/18 11:45:09;;;;;;;4.83;1.43;;;;;;;;;;5009718;28;20504;-70
2022/07/18 11:47:53;;;;;;;5.55;1.90;;;;;;;;;;5009934;28;20265;-70
2022/07/18 11:50:26;;;;;;;6.80;1.20;;;;;;;;;;5010072;28;20030;-69
2022/07/18 11:52:55;;;;;;;4.30;1.30;;;;;;;;;;4997498;28;20017;-69
2022/07/18 11:55:31;;;;;;;3.67;1.55;;;;;;;;;;5005982;28;20111;-69
2022/07/18 11:58:04;;;;;;;3.70;1.35;;;;;;;;;;5006603;28;20164;-69
2022/07/18 12:00:29;;;;;;;4.05;1.40;;;;;;;;;;4994852;28;20282;-70
2022/07/18 12:02:55;;;;;;;16.77;2.30;;;;;;;;;;5010905;28;20028;-70
2022/07/18 12:05:29;;;;;;;7.13;1.77;;;;;;;;;;5010558;28;20100;-70
2022/07/18 12:07:54;;;;;;;5.20;1.08;;;;;;;;;;5007161;28;20025;-70
2022/07/18 12:10:19;;;;;;;7.30;1.17;;;;;;;;;;5010831;28;20022;-70
2022/07/18 12:12:46;;;;;;;7.82;1.35;;;;;;;;;;5010403;28;20394;-69
2022/07/18 12:15:12;;;;;;;6.20;1.13;;;;;;;;;;5008079;28;20084;-69
2022/07/18 12:17:47;;;;;;;9.57;1.30;;;;;;;;;;5006665;28;20028;-69
2022/07/18 12:20:13;;;;;;;4.72;1.30;;;;;;;;;;5012770;28;20501;-69
2022/07/18 12:22:57;;;;;;;2.72;1.20;;;;;;;;;;5008707;28;20026;-70
2022/07/18 12:25:33;;;;;;;6.10;1.52;;;;;;;;;;5011049;28;20018;-70
2022/07/18 12:28:11;;;;;;;5.13;1.60;;;;;;;;;;5013747;28;20021;-70
2022/07/18 12:30:36;;;;;;;1.58;0.80;;;;;;;;;;5008491;28;20054;-70
2022/07/18 12:33:07;;;;;;;2.20;1.05;;;;;;;;;;5010784;28;20053;-69
2022/07/18 12:35:36;;;;;;;7.53;1.65;;;;;;;;;;5011238;28;20076;-70
2022/07/18 12:38:05;;;;;;;3.83;1.20;;;;;;;;;;5010812;28;20030;-70
2022/07/18 12:40:42;;;;;;;11.30;1.55;;;;;;;;;;5011100;28;20413;-70
2022/07/18 12:43:08;;;;;;;2.60;1.30;;;;;;;;;;5007652;28;20053;-70
2022/07/18 12:45:34;;;;;;;3.80;1.67;;;;;;;;;;5009737;28;20088;-70
2022/07/18 12:47:59;;;;;;;5.80;1.50;;;;;;;;;;5010618;28;20021;-70
2022/07/18 12:50:24;;;;;;;2.40;1.20;;;;;;;;;;5010252;28;20398;-69
2022/07/18 12:52:49;;;;;;;4.73;1.20;;;;;;;;;;5009529;28;20022;-69
2022/07/18 12:55:15;;;;;;;5.43;1.20;;;;;;;;;;5009487;28;20291;-69
2022/07/18 12:57:40;;;;;;;3.13;1.17;;;;;;;;;;5009573;28;20095;-69
2022/07/18 13:00:06;;;;;;;6.90;1.38;;;;;;;;;;5009209;28;20510;-69
2022/07/18 13:02:31;;;;;;;13.07;2.45;;;;;;;;;;5010730;28;20022;-69
2022/07/18 13:04:56;;;;;;;2.20;1.30;;;;;;;;;;5006750;28;20026;-69
2022/07/18 13:07:21;;;;;;;3.03;1.20;;;;;;;;;;5007584;28;20022;-69
2022/07/18 13:09:47;;;;;;;5.18;1.20;;;;;;;;;;5009594;28;20475;-69
2022/07/18 13:12:12;;;;;;;13.03;2.77;;;;;;;;;;5008816;28;20014;-70
2022/07/18 13:14:37;;;;;;;8.57;1.80;;;;;;;;;;5010709;28;20025;-69
2022/07/18 13:17:02;;;;;;;1.97;1.20;;;;;;;;;;5009134;28;20268;-69
2022/07/18 13:19:28;;;;;;;3.73;1.50;;;;;;;;;;5009079;28;20025;-69
2022/07/18 13:21:53;;;;;;;6.82;1.30;;;;;;;;;;5008907;28;20280;-69
2022/07/18 13:24:18;;;;;;;4.07;1.47;;;;;;;;;;5009780;28;20034;-70
2022/07/18 13:26:44;;;;;;;6.07;1.80;;;;;;;;;;5009530;28;20018;-69
2022/07/18 13:29:09;;;;;;;9.02;1.63;;;;;;;;;;5010179;28;20022;-70
2022/07/18 13:31:34;;;;;;;2.07;1.23;;;;;;;;;;5009745;28;20033;-70
2022/07/18 13:34:00;;;;;;;4.97;1.83;;;;;;;;;;5000255;28;20040;-70
2022/07/18 13:36:25;;;;;;;4.82;1.63;;;;;;;;;;5009103;28;20026;-69
2022/07/18 13:38:50;;;;;;;7.73;2.27;;;;;;;;;;5001404;28;20519;-69
2022/07/18 13:41:15;;;;;;;10.50;1.30;;;;;;;;;;5007924;28;20025;-69
2022/07/18 13:43:41;;;;;;;5.18;1.35;;;;;;;;;;5009575;28;20018;-69
2022/07/18 13:46:10;;;;;;;9.57;1.92;;;;;;;;;;5009117;28;20025;-69
2022/07/18 13:48:35;;;;;;;14.05;1.70;;;;;;;;;;5008726;28;20022;-69
2022/07/18 13:51:01;;;;;;;5.57;1.42;;;;;;;;;;5009117;28;20049;-69
2022/07/18 13:53:26;;;;;;;10.17;1.33;;;;;;;;;;5010485;28;20029;-70
2022/07/18 13:55:51;;;;;;;5.93;1.40;;;;;;;;;;5008252;28;20261;-69
2022/07/18 13:58:16;;;;;;;4.30;1.38;;;;;;;;;;5009412;28;20021;-70
2022/07/18 14:00:42;;;;;;;5.93;1.83;;;;;;;;;;5009781;28;20025;-70
2022/07/18 14:03:08;;;;;;;5.63;1.38;;;;;;;;;;5004935;28;20025;-69
2022/07/18 14:05:33;;;;;;;10.83;1.57;;;;;;;;;;5002534;28;20991;-69
2022/07/18 14:07:58;;;;;;;7.57;1.63;;;;;;;;;;5005117;28;20076;-69
2022/07/18 14:10:23;;;;;;;10.90;1.67;;;;;;;;;;5005934;28;20025;-70
2022/07/18 14:12:49;;;;;;;7.47;1.50;;;;;;;;;;5008451;28;20037;-69
2022/07/18 14:15:14;;;;;;;3.55;1.33;;;;;;;;;;5008969;28;20029;-69
2022/07/18 14:17:39;;;;;;;8.48;1.67;;;;;;;;;;5007774;28;20529;-69
2022/07/18 14:20:06;;;;;;;12.18;1.50;;;;;;;;;;5010740;28;20030;-69
2022/07/18 14:22:32;;;;;;;5.70;1.42;;;;;;;;;;5012423;28;20344;-69
2022/07/18 14:24:57;;;;;;;5.50;1.77;;;;;;;;;;5012200;28;20048;-70
2022/07/18 14:27:23;;;;;;;6.10;1.88;;;;;;;;;;5011447;28;20034;-70
2022/07/18 14:29:48;;;;;;;6.60;1.60;;;;;;;;;;5012997;28;20017;-69
2022/07/18 14:32:13;;;;;;;7.47;1.53;;;;;;;;;;5009873;28;20080;-69
2022/07/18 14:34:38;;;;;;;5.22;1.55;;;;;;;;;;5010292;28;20030;-69
2022/07/18 14:37:03;;;;;;;7.07;1.57;;;;;;;;;;5008880;28;20021;-69
2022/07/18 14:39:29;;;;;;;3.23;1.43;;;;;;;;;;5012186;28;20112;-69
2022/07/18 14:41:54;;;;;;;3.13;1.33;;;;;;;;;;5009432;28;20028;-69
2022/07/18 14:44:19;;;;;;;3.42;1.42;;;;;;;;;;5011759;28;20327;-70